Time;durP1;ratioP1;P1;durP2;ratioP2;P2;SDS_P1;SDS_P2;PMS_P1;PMS_P2;Temp;Humidity;BMP_temperature;BMP_pressure;BME280_temperature;BME280_humidity;BME280_pressure;Samples;Min_cycle;Max_cycle;Signal;HPM_P1;HPM_P2
2020/12/16 00:02:01;;;;;;;;;;;;;;;20.09;64.85;100979.22;4983464;28;977;-78
2020/12/16 00:04:26;;;;;;;;;;;;;;;20.08;65.00;100980.13;4978399;28;1268;-77
2020/12/16 00:06:51;;;;;;;;;;;;;;;20.09;64.64;100987.13;4971400;28;779;-76
2020/12/16 00:09:17;;;;;;;;;;;;;;;20.07;64.79;100981.94;4972293;28;1225;-77
2020/12/16 00:11:42;;;;;;;;;;;;;;;20.07;64.93;100981.94;4971952;28;767;-76
2020/12/16 00:14:08;;;;;;;;;;;;;;;20.08;64.78;100983.63;4971237;28;1899;-78
2020/12/16 00:16:34;;;;;;;;;;;;;;;20.06;64.96;100988.16;4970408;28;1718;-75
2020/12/16 00:18:59;;;;;;;;;;;;;;;20.07;65.06;100989.00;4970769;28;1525;-77
2020/12/16 00:21:25;;;;;;;;;;;;;;;20.08;65.10;100986.28;4970606;28;1387;-78
2020/12/16 00:23:50;;;;;;;;;;;;;;;20.12;65.57;100987.78;4972574;28;851;-78
2020/12/16 00:26:16;;;;;;;;;;;;;;;20.09;65.71;100982.69;4972098;28;1523;-77
2020/12/16 00:28:42;;;;;;;;;;;;;;;20.08;65.68;100981.00;4987119;28;1010;-75
2020/12/16 00:31:07;;;;;;;;;;;;;;;20.11;65.39;100970.25;4970983;28;1332;-77
2020/12/16 00:33:33;;;;;;;;;;;;;;;20.18;65.25;100976.03;4970760;28;1926;-77
2020/12/16 00:35:59;;;;;;;;;;;;;;;20.15;64.92;100969.09;4971271;28;1255;-79
2020/12/16 00:38:24;;;;;;;;;;;;;;;20.13;65.19;100963.06;4970864;28;753;-80
2020/12/16 00:40:49;;;;;;;;;;;;;;;20.14;64.90;100958.63;4969568;28;1264;-79
2020/12/16 00:43:15;;;;;;;;;;;;;;;20.10;65.19;100960.59;4969551;28;1028;-80
2020/12/16 00:45:40;;;;;;;;;;;;;;;20.11;65.11;100954.38;4969732;28;1257;-79
2020/12/16 00:48:06;;;;;;;;;;;;;;;20.10;65.16;100963.22;4970038;28;857;-79
2020/12/16 00:50:31;;;;;;;;;;;;;;;20.11;65.30;100970.25;4969185;28;1284;-79
2020/12/16 00:52:57;;;;;;;;;;;;;;;20.09;64.88;100964.16;4974364;28;1907;-79
2020/12/16 00:55:22;;;;;;;;;;;;;;;20.05;64.78;100957.38;4971614;28;1360;-79
2020/12/16 00:57:48;;;;;;;;;;;;;;;20.07;65.35;100952.84;4970515;28;1501;-77
2020/12/16 01:00:15;;;;;;;;;;;;;;;19.95;65.38;100942.97;4971684;28;1378;-79
2020/12/16 01:02:41;;;;;;;;;;;;;;;20.03;65.11;100961.06;4973436;28;995;-78
2020/12/16 01:05:06;;;;;;;;;;;;;;;20.00;64.75;100956.78;4971731;28;1414;-79
2020/12/16 01:07:32;;;;;;;;;;;;;;;20.06;64.67;100961.69;4974101;28;969;-79
2020/12/16 01:09:57;;;;;;;;;;;;;;;20.04;64.89;100958.31;4972624;28;1250;-79
2020/12/16 01:12:23;;;;;;;;;;;;;;;20.00;64.78;100955.94;4973165;28;1930;-80
2020/12/16 01:14:48;;;;;;;;;;;;;;;19.98;64.88;100963.97;4987940;28;1209;-78
2020/12/16 01:17:14;;;;;;;;;;;;;;;20.00;64.74;100956.78;4972228;28;952;-77
2020/12/16 01:19:39;;;;;;;;;;;;;;;20.05;65.27;100954.72;4972608;28;1544;-76
2020/12/16 01:22:05;;;;;;;;;;;;;;;20.01;64.51;100947.91;4970005;28;1201;-76
2020/12/16 01:24:31;;;;;;;;;;;;;;;19.95;64.58;100942.97;4971169;28;1296;-76
2020/12/16 01:26:56;;;;;;;;;;;;;;;19.98;64.79;100948.09;4971263;28;764;-77
2020/12/16 01:29:22;;;;;;;;;;;;;;;20.00;65.00;100951.50;4969875;28;1563;-76
2020/12/16 01:31:48;;;;;;;;;;;;;;;20.02;64.76;100960.19;4970203;28;1629;-77
2020/12/16 01:34:19;;;;;;;;;;;;;;;20.03;64.47;100951.31;4970844;28;2023;-76
2020/12/16 01:36:45;;;;;;;;;;;;;;;20.01;64.31;100952.34;4969236;28;1241;-77
2020/12/16 01:39:11;;;;;;;;;;;;;;;20.02;64.47;100954.06;4969346;28;1298;-75
2020/12/16 01:41:41;;;;;;;;;;;;;;;19.95;64.50;100955.34;4970052;28;1222;-77
2020/12/16 01:44:13;;;;;;;;;;;;;;;19.96;64.50;100965.84;4970630;28;1482;-78
2020/12/16 01:46:52;;;;;;;;;;;;;;;19.96;64.31;100965.00;4971298;28;1211;-78
2020/12/16 01:49:19;;;;;;;;;;;;;;;19.96;64.45;100965.84;4974081;28;1238;-78
2020/12/16 01:51:44;;;;;;;;;;;;;;;19.96;64.40;100970.28;4977387;28;833;-78
2020/12/16 01:54:14;;;;;;;;;;;;;;;19.99;64.15;100965.66;4974875;28;1918;-76
2020/12/16 01:56:41;;;;;;;;;;;;;;;19.93;64.32;100971.31;4973965;28;1383;-77
2020/12/16 01:59:11;;;;;;;;;;;;;;;19.89;64.46;100964.50;4975058;28;1244;-75
2020/12/16 02:01:37;;;;;;;;;;;;;;;19.88;64.60;100978.66;4973828;28;977;-77
2020/12/16 02:04:04;;;;;;;;;;;;;;;19.90;64.63;100966.22;4976682;28;1200;-80
2020/12/16 02:06:32;;;;;;;;;;;;;;;19.88;64.63;100969.88;4980079;28;941;-80
2020/12/16 02:09:08;;;;;;;;;;;;;;;19.87;64.38;100970.81;4980636;28;1088;-79
2020/12/16 02:12:05;;;;;;;;;;;;;;;19.91;64.55;100956.50;4980505;28;1015;-79
2020/12/16 02:14:33;;;;;;;;;;;;;;;19.94;64.72;100962.44;4987898;28;1340;-79
2020/12/16 02:21:15;;;;;;;;;;;;;;;19.90;64.21;100955.63;4975196;28;1442;-79
2020/12/16 02:23:38;;;;;;;;;;;;;;;19.93;64.49;100958.09;4952486;28;1983;-79
2020/12/16 02:26:27;;;;;;;;;;;;;;;19.92;64.36;100952.88;4951092;29;1476;-78
2020/12/16 02:29:25;;;;;;;;;;;;;;;19.85;64.15;100947.09;4911853;29;1273;-78
2020/12/16 02:31:57;;;;;;;;;;;;;;;19.90;64.26;100954.78;4979476;28;1940;-76
2020/12/16 02:37:31;;;;;;;;;;;;;;;19.86;64.40;100953.25;5005825;28;1501;-76
2020/12/16 02:40:25;;;;;;;;;;;;;;;19.86;64.32;100953.25;5098457;23;2188;-77
2020/12/16 02:43:00;;;;;;;;;;;;;;;19.88;64.40;100946.91;4996185;28;1437;-78
2020/12/16 02:45:35;;;;;;;;;;;;;;;19.86;64.16;100950.59;4960583;28;1336;-78
2020/12/16 02:48:25;;;;;;;;;;;;;;;19.91;63.92;100945.91;4968928;28;1045;-78
2020/12/16 02:50:50;;;;;;;;;;;;;;;19.89;63.98;100946.00;4951808;28;1499;-78
2020/12/16 02:53:25;;;;;;;;;;;;;;;19.88;64.09;100939.00;4954295;28;1927;-77
2020/12/16 02:56:44;;;;;;;;;;;;;;;19.87;64.05;100942.59;4903221;29;1496;-77
2020/12/16 02:59:30;;;;;;;;;;;;;;;19.87;63.77;100934.66;4892214;29;1593;-78
2020/12/16 03:01:56;;;;;;;;;;;;;;;19.85;63.98;100935.69;4928255;28;1970;-79
2020/12/16 03:04:47;;;;;;;;;;;;;;;19.89;63.75;100943.34;4981030;28;1261;-79
2020/12/16 03:07:37;;;;;;;;;;;;;;;19.88;63.70;100940.81;4991752;28;1101;-78
2020/12/16 03:10:41;;;;;;;;;;;;;;;19.87;63.74;100939.09;4892093;29;1233;-78
2020/12/16 03:13:11;;;;;;;;;;;;;;;19.84;63.80;100929.56;4988022;28;1967;-75
2020/12/16 03:15:38;;;;;;;;;;;;;;;19.84;63.95;100921.63;4973934;28;1378;-75
2020/12/16 03:18:15;;;;;;;;;;;;;;;19.89;63.65;100919.56;4991572;28;924;-76
2020/12/16 03:20:41;;;;;;;;;;;;;;;19.92;63.33;100914.09;4972931;28;1911;-75
2020/12/16 03:23:12;;;;;;;;;;;;;;;19.87;63.34;100905.59;4991065;28;1012;-77
2020/12/16 03:25:56;;;;;;;;;;;;;;;19.87;63.44;100912.66;5015391;23;2052;-78
2020/12/16 03:28:22;;;;;;;;;;;;;;;19.89;63.55;100916.06;4984972;28;1515;-78
2020/12/16 03:30:47;;;;;;;;;;;;;;;19.86;63.53;100911.81;4982478;28;1285;-78
2020/12/16 03:33:13;;;;;;;;;;;;;;;19.85;63.64;100907.44;4988134;28;1979;-78
2020/12/16 03:36:02;;;;;;;;;;;;;;;19.86;63.42;100911.81;4948429;29;1707;-79
2020/12/16 03:38:28;;;;;;;;;;;;;;;19.82;63.42;100920.84;4949759;29;907;-78
2020/12/16 03:40:57;;;;;;;;;;;;;;;19.84;63.75;100923.41;4949565;28;1230;-77
2020/12/16 03:43:22;;;;;;;;;;;;;;;19.94;63.19;100914.84;4949485;29;950;-76
2020/12/16 03:45:48;;;;;;;;;;;;;;;19.89;63.19;100929.28;4949311;29;1154;-78
2020/12/16 03:48:13;;;;;;;;;;;;;;;19.89;63.11;100913.41;4949405;29;1162;-77
2020/12/16 03:50:38;;;;;;;;;;;;;;;19.91;62.86;100922.94;4957954;28;1548;-77
2020/12/16 03:53:04;;;;;;;;;;;;;;;19.87;63.17;100925.88;4968494;28;1988;-77
2020/12/16 03:55:29;;;;;;;;;;;;;;;19.87;63.10;100921.44;4950238;28;1301;-79
2020/12/16 03:57:55;;;;;;;;;;;;;;;19.85;63.47;100923.31;4948938;28;1230;-79
2020/12/16 04:00:33;;;;;;;;;;;;;;;;;;;;;
2020/12/16 04:03:00;;;;;;;;;;;;;;;19.88;62.91;100923.13;4932834;29;1296;-79
2020/12/16 04:05:25;;;;;;;;;;;;;;;19.83;63.19;100922.56;4948896;28;1238;-78
2020/12/16 04:07:50;;;;;;;;;;;;;;;19.80;63.24;100914.81;4989852;28;1550;-79
2020/12/16 04:10:16;;;;;;;;;;;;;;;19.82;63.16;100914.72;4988965;28;1241;-76
2020/12/16 04:12:44;;;;;;;;;;;;;;;19.88;62.81;100917.00;4988197;28;1910;-75
2020/12/16 04:15:10;;;;;;;;;;;;;;;19.88;63.17;100915.19;4988720;28;1253;-76
2020/12/16 04:17:38;;;;;;;;;;;;;;;19.85;63.17;100917.19;4996754;28;1360;-77
2020/12/16 04:20:04;;;;;;;;;;;;;;;19.80;63.20;100917.44;5010220;28;1348;-80
2020/12/16 04:22:30;;;;;;;;;;;;;;;19.80;63.22;100912.16;5011123;28;1040;-80
2020/12/16 04:24:58;;;;;;;;;;;;;;;19.81;63.15;100913.88;5010633;28;1303;-80
2020/12/16 04:27:24;;;;;;;;;;;;;;;19.80;63.06;100925.38;4992997;28;1172;-81
2020/12/16 04:29:49;;;;;;;;;;;;;;;19.82;63.07;100915.56;5010746;28;1173;-76
2020/12/16 04:32:15;;;;;;;;;;;;;;;19.79;63.11;100926.31;4992130;28;1898;-77
2020/12/16 04:34:40;;;;;;;;;;;;;;;19.78;63.19;100924.63;4976008;28;1312;-77
2020/12/16 04:37:18;;;;;;;;;;;;;;;19.77;63.01;100911.47;5010039;28;925;-78
2020/12/16 04:39:46;;;;;;;;;;;;;;;19.74;63.09;100917.81;4992413;28;1350;-79
2020/12/16 04:42:12;;;;;;;;;;;;;;;19.82;62.93;100920.00;4991401;28;1224;-80
2020/12/16 04:44:37;;;;;;;;;;;;;;;19.75;63.26;100919.53;4991987;28;1284;-80
2020/12/16 04:47:03;;;;;;;;;;;;;;;19.81;62.88;100915.66;5024723;28;1418;-81
2020/12/16 04:49:29;;;;;;;;;;;;;;;19.79;62.81;100923.66;5012161;28;1268;-81
2020/12/16 04:51:54;;;;;;;;;;;;;;;19.78;62.89;100924.63;5029835;28;1137;-82
2020/12/16 04:54:20;;;;;;;;;;;;;;;19.75;62.84;100922.16;5029237;28;1963;-77
2020/12/16 04:56:45;;;;;;;;;;;;;;;19.79;62.87;100928.94;5011381;28;998;-78
2020/12/16 04:59:11;;;;;;;;;;;;;;;19.76;62.85;100937.06;5027796;28;1252;-76
2020/12/16 05:01:38;;;;;;;;;;;;;;;19.77;62.88;100933.47;5029866;28;954;-77
2020/12/16 05:06:56;;;;;;;;;;;;;;;19.77;62.77;100933.47;5145487;23;2061;-79
2020/12/16 05:09:21;;;;;;;;;;;;;;;19.73;62.78;100937.25;4992342;28;1253;-75
2020/12/16 05:12:15;;;;;;;;;;;;;;;19.73;62.84;100934.59;5007642;28;1031;-75
2020/12/16 05:14:41;;;;;;;;;;;;;;;19.71;62.90;100936.47;5009300;28;1287;-76
2020/12/16 05:17:06;;;;;;;;;;;;;;;19.71;62.95;100925.91;5009289;28;834;-76
2020/12/16 05:19:37;;;;;;;;;;;;;;;19.73;62.87;100925.84;5009000;28;1343;-77
2020/12/16 05:22:18;;;;;;;;;;;;;;;19.76;62.59;100928.31;5009330;28;881;-76
2020/12/16 05:24:47;;;;;;;;;;;;;;;19.77;62.61;100937.91;5010645;28;1288;-76
2020/12/16 05:27:14;;;;;;;;;;;;;;;19.75;63.14;100945.94;5012987;28;996;-76
2020/12/16 05:29:39;;;;;;;;;;;;;;;19.72;62.62;100942.63;5013044;28;1346;-76
2020/12/16 05:32:37;;;;;;;;;;;;;;;19.77;62.63;100943.19;5013027;28;787;-76
2020/12/16 05:35:21;;;;;;;;;;;;;;;19.77;62.73;100953.78;4951537;29;1214;-76
2020/12/16 05:38:35;;;;;;;;;;;;;;;19.75;62.50;100948.59;4970063;28;1198;-76
2020/12/16 05:41:06;;;;;;;;;;;;;;;19.69;62.82;100951.59;5078679;23;1989;-76
2020/12/16 05:43:31;;;;;;;;;;;;;;;19.70;62.66;100952.44;5013726;28;929;-76
2020/12/16 05:45:57;;;;;;;;;;;;;;;19.73;62.73;100958.38;5013771;28;1269;-76
2020/12/16 05:48:29;;;;;;;;;;;;;;;19.71;62.52;100954.97;5012912;28;771;-76
2020/12/16 05:50:58;;;;;;;;;;;;;;;19.72;62.82;100958.47;5026928;28;1411;-78
2020/12/16 05:56:30;;;;;;;;;;;;;;;19.75;62.27;100958.31;5011829;28;1159;-77
2020/12/16 05:59:07;;;;;;;;;;;;;;;19.69;62.81;100964.81;4994417;28;1265;-77
2020/12/16 06:01:42;;;;;;;;;;;;;;;19.65;62.63;100963.25;4994954;28;1176;-77
2020/12/16 06:06:57;;;;;;;;;;;;;;;19.69;62.44;100966.59;5153180;23;1862;-78
2020/12/16 06:09:23;;;;;;;;;;;;;;;19.74;62.63;100968.03;4997117;28;1353;-78
2020/12/16 06:11:52;;;;;;;;;;;;;;;19.75;62.59;100972.38;5012753;28;997;-78
2020/12/16 06:14:20;;;;;;;;;;;;;;;19.71;62.42;100965.56;4986339;28;1981;-79
2020/12/16 06:16:47;;;;;;;;;;;;;;;19.74;62.47;100977.75;5012259;28;1011;-80
2020/12/16 06:19:48;;;;;;;;;;;;;;;19.71;62.24;100976.13;5012187;28;1288;-79
2020/12/16 06:22:15;;;;;;;;;;;;;;;19.69;62.64;100972.72;4985685;28;1625;-78
2020/12/16 06:24:42;;;;;;;;;;;;;;;19.72;62.43;100982.28;5011881;28;1237;-78
2020/12/16 06:27:09;;;;;;;;;;;;;;;19.86;62.93;100971.75;5012358;28;1022;-82
2020/12/16 06:29:45;;;;;;;;;;;;;;;19.60;62.80;100973.25;5012617;28;1305;-83
2020/12/16 06:32:15;;;;;;;;;;;;;;;19.57;62.78;100982.22;4993919;28;1431;-76
2020/12/16 06:34:45;;;;;;;;;;;;;;;19.53;62.57;100983.31;4993594;28;1328;-77
2020/12/16 06:37:19;;;;;;;;;;;;;;;19.59;63.06;100984.75;4994154;28;1781;-76
2020/12/16 06:39:45;;;;;;;;;;;;;;;19.67;62.34;100990.44;4993444;28;1253;-76
2020/12/16 06:42:32;;;;;;;;;;;;;;;19.70;62.06;100992.09;5011620;28;1045;-76
2020/12/16 06:45:16;;;;;;;;;;;;;;;19.67;62.05;100987.81;5011693;28;1253;-77
2020/12/16 06:47:45;;;;;;;;;;;;;;;19.70;61.88;100989.44;5011302;28;1032;-77
2020/12/16 06:50:20;;;;;;;;;;;;;;;19.66;62.05;100999.34;4993892;28;1194;-80
2020/12/16 06:52:49;;;;;;;;;;;;;;;19.66;62.03;100995.84;5012256;28;1930;-81
2020/12/16 06:55:17;;;;;;;;;;;;;;;19.61;62.20;100996.09;4977971;28;1414;-83
2020/12/16 06:57:50;;;;;;;;;;;;;;;19.58;62.08;100996.25;4994083;28;936;-79
2020/12/16 07:03:36;;;;;;;;;;;;;;;19.58;62.71;101006.81;5006169;28;818;-76
2020/12/16 07:06:02;;;;;;;;;;;;;;;19.57;62.51;101007.78;4981512;28;1686;-79
2020/12/16 07:08:28;;;;;;;;;;;;;;;19.53;62.34;101009.75;4991619;28;791;-78
2020/12/16 07:10:54;;;;;;;;;;;;;;;19.53;62.59;101011.53;5037316;23;1615;-75
2020/12/16 07:13:35;;;;;;;;;;;;;;;19.51;62.33;101016.06;4983790;28;1931;-76
2020/12/16 07:16:09;;;;;;;;;;;;;;;19.54;62.22;101000.88;4967942;28;1411;-76
2020/12/16 07:18:48;;;;;;;;;;;;;;;19.52;62.32;100996.59;4971076;28;778;-76
2020/12/16 07:21:16;;;;;;;;;;;;;;;19.54;62.89;101005.31;4970604;28;1260;-75
2020/12/16 07:23:48;;;;;;;;;;;;;;;19.57;62.43;101005.13;4970840;28;846;-76
2020/12/16 07:26:18;;;;;;;;;;;;;;;19.68;62.52;100999.22;4971122;28;1273;-76
2020/12/16 07:29:22;;;;;;;;;;;;;;;19.52;62.32;101001.88;4971034;28;1199;-79
2020/12/16 07:31:57;;;;;;;;;;;;;;;19.51;62.23;100995.78;4971112;28;1222;-77
2020/12/16 07:34:22;;;;;;;;;;;;;;;19.41;62.52;101009.56;4970712;28;1962;-77
2020/12/16 07:37:06;;;;;;;;;;;;;;;19.47;62.40;101003.94;4971320;28;1059;-78
2020/12/16 07:39:46;;;;;;;;;;;;;;;19.56;61.95;101008.72;4970992;28;1249;-74
2020/12/16 07:42:21;;;;;;;;;;;;;;;19.56;62.03;101003.44;5004096;28;1384;-75
2020/12/16 07:44:47;;;;;;;;;;;;;;;19.45;62.38;101006.69;4971725;28;1366;-74
2020/12/16 07:47:23;;;;;;;;;;;;;;;19.41;62.51;101009.56;4970218;28;813;-77
2020/12/16 07:49:54;;;;;;;;;;;;;;;19.43;62.59;101005.03;4970052;28;1194;-74
2020/12/16 07:52:29;;;;;;;;;;;;;;;19.74;62.09;101007.66;4972173;28;1956;-76
2020/12/16 07:55:01;;;;;;;;;;;;;;;19.82;62.30;101020.47;4973135;28;1233;-78
2020/12/16 07:57:34;;;;;;;;;;;;;;;19.89;62.10;101022.66;4975321;28;1123;-75
2020/12/16 07:59:59;;;;;;;;;;;;;;;19.69;62.22;101020.31;4957356;28;1391;-77
2020/12/16 08:02:43;;;;;;;;;;;;;;;19.70;62.68;101024.63;4974866;28;917;-78
2020/12/16 08:05:13;;;;;;;;;;;;;;;19.68;62.53;101033.59;5001638;28;1687;-71
2020/12/16 08:07:50;;;;;;;;;;;;;;;19.51;62.59;101032.75;4980543;28;1254;-73
2020/12/16 08:10:16;;;;;;;;;;;;;;;19.46;62.76;101033.94;4976840;28;1694;-73
2020/12/16 08:12:42;;;;;;;;;;;;;;;19.43;62.75;101045.53;4967412;28;1915;-73
2020/12/16 08:15:08;;;;;;;;;;;;;;;19.40;62.75;101043.06;4990957;28;1363;-73
2020/12/16 08:17:41;;;;;;;;;;;;;;;19.45;62.72;101042.81;4974390;28;1459;-73
2020/12/16 08:20:16;;;;;;;;;;;;;;;19.44;62.70;101041.97;4969890;28;1286;-74
2020/12/16 08:22:43;;;;;;;;;;;;;;;19.48;62.60;101050.56;5002994;28;1545;-73
2020/12/16 08:25:15;;;;;;;;;;;;;;;19.47;62.47;101048.84;4970550;28;1182;-73
2020/12/16 08:27:48;;;;;;;;;;;;;;;19.49;62.48;101052.25;4970642;28;1687;-73
2020/12/16 08:33:27;;;;;;;;;;;;;;;18.47;66.17;101044.47;5107729;27;1261;-35
2020/12/16 08:36:12;;;;;;;;;;;;;;;18.20;67.19;101050.28;5106466;28;1716;-35
2020/12/16 08:38:43;;;;;;;;;;;;;;;18.17;67.53;101048.66;5104201;28;1245;-35
2020/12/16 08:41:10;;;;;;;;;;;;;;;18.17;67.41;101050.44;5114118;28;1298;-35
2020/12/16 08:43:37;;;;;;;;;;;;;;;18.18;67.70;101060.06;5104773;28;1129;-35
2020/12/16 08:46:02;;;;;;;;;;;;;;;18.19;67.49;101056.47;5122495;28;2252;-33
2020/12/16 08:48:28;;;;;;;;;;;;;;;18.20;67.49;101055.53;5126275;28;836;-34
2020/12/16 08:51:01;;;;;;;;;;;;;;;18.20;67.67;101059.03;5124611;28;1232;-42
2020/12/16 08:53:26;;;;;;;;;;;;;;;18.19;67.59;101059.09;5118061;28;1235;-41
2020/12/16 08:55:52;;;;;;;;;;;;;;;18.19;67.66;101057.31;5106196;27;1294;-41
2020/12/16 08:58:17;;;;;;;;;;;;;;;18.20;67.60;101063.44;5105661;28;1131;-40
2020/12/16 09:00:43;;;;;;;;;;;;;;;18.18;67.76;101063.50;5106359;28;1287;-42
2020/12/16 09:03:09;;;;;;;;;;;;;;;18.18;67.74;101068.78;5105455;28;1038;-42
2020/12/16 09:05:36;;;;;;;;;;;;;;;18.19;67.59;101064.38;5105189;28;1248;-42
2020/12/16 09:08:06;;;;;;;;;;;;;;;18.20;67.40;101074.88;5105344;28;1003;-43
2020/12/16 09:10:35;;;;;;;;;;;;;;;17.86;68.05;101080.91;5113718;28;1479;-39
2020/12/16 09:13:14;;;;;;;;;;;;;;;17.73;66.90;101084.19;5124113;28;1906;-45
2020/12/16 09:15:42;;;;;;;;;;;;;;;17.83;66.71;101090.75;5118061;28;1243;-46
2020/12/16 09:18:09;;;;;;;;;;;;;;;17.08;66.70;101089.84;5104307;28;1111;-37
2020/12/16 09:20:34;;;;;;;;;;;;;;;17.58;66.62;101096.31;5105487;28;1216;-36
2020/12/16 09:22:59;;;;;;;;;;;;;;;17.87;65.17;101097.59;5104196;28;1239;-37
2020/12/16 09:25:25;;;;;;;;;;;;;;;17.97;64.95;101096.19;5105397;28;1216;-37
2020/12/16 09:27:54;;;;;;;;;;;;;;;18.02;64.67;101097.69;5103679;28;987;-39
2020/12/16 09:30:29;;;;;;;;;;;;;;;18.08;64.57;101106.25;5105383;28;1228;-42
2020/12/16 09:32:54;;;;;;;;;;;;;;;18.07;64.65;101102.75;5105125;28;1897;-41
2020/12/16 09:35:21;;;;;;;;;;;;;;;18.08;64.68;101116.78;5105203;28;1310;-35
2020/12/16 09:37:47;;;;;;;;;;;;;;;18.07;64.40;101115.94;5104902;28;1545;-35
2020/12/16 09:40:15;;;;;;;;;;;;;;;17.99;64.36;101118.91;5104039;28;1216;-36
2020/12/16 09:42:52;;;;;;;;;;;;;;;18.03;64.66;101117.84;5104019;28;1504;-36
2020/12/16 09:45:21;;;;;;;;;;;;;;;18.03;64.77;101117.00;5091774;28;1295;-36
2020/12/16 09:47:47;;;;;;;;;;;;;;;18.06;65.10;101119.47;5093332;28;1183;-40
2020/12/16 09:50:13;;;;;;;;;;;;;;;18.03;65.07;101120.50;5092616;28;1224;-37
2020/12/16 09:52:39;;;;;;;;;;;;;;;17.99;64.48;101121.56;5073720;28;1910;-36
2020/12/16 09:55:12;;;;;;;;;;;;;;;18.00;64.86;101123.28;5092858;28;1232;-37
2020/12/16 09:57:37;;;;;;;;;;;;;;;17.98;64.84;101121.63;5090877;28;1080;-38
2020/12/16 10:00:04;;;;;;;;;;;;;;;17.97;65.12;101117.28;5093729;28;1334;-40
2020/12/16 10:02:29;;;;;;;;;;;;;;;17.99;64.48;101118.91;5092073;28;983;-37
2020/12/16 10:04:56;;;;;;;;;;;;;;;17.98;64.31;101117.22;5092291;28;1228;-38
2020/12/16 10:07:21;;;;;;;;;;;;;;;17.98;64.82;101121.63;5090503;28;1569;-36
2020/12/16 10:09:54;;;;;;;;;;;;;;;17.97;64.37;101112.88;5091248;28;1224;-36
2020/12/16 10:12:23;;;;;;;;;;;;;;;18.00;64.44;101112.72;5091487;28;1922;-37
2020/12/16 10:14:48;;;;;;;;;;;;;;;18.01;64.54;101117.09;5091460;28;1204;-37
2020/12/16 10:17:14;;;;;;;;;;;;;;;18.01;64.38;101117.09;5091678;28;1097;-38
2020/12/16 10:19:39;;;;;;;;;;;;;;;18.03;64.37;101119.63;5090224;28;1299;-36
2020/12/16 10:22:05;;;;;;;;;;;;;;;18.03;64.69;101115.22;5091235;28;1134;-37
2020/12/16 10:24:30;;;;;;;;;;;;;;;18.02;64.55;101108.22;5091032;28;1189;-36
2020/12/16 10:26:56;;;;;;;;;;;;;;;18.04;64.52;101105.53;5090501;28;1350;-36
2020/12/16 10:29:21;;;;;;;;;;;;;;;18.02;64.23;101108.22;5090467;28;1145;-36
2020/12/16 10:31:50;;;;;;;;;;;;;;;18.04;64.60;101110.81;5093047;28;1910;-37
2020/12/16 10:34:16;;;;;;;;;;;;;;;18.02;63.74;101108.22;5095748;28;1377;-38
2020/12/16 10:36:42;;;;;;;;;;;;;;;17.97;63.98;101110.22;5072541;28;1257;-40
2020/12/16 10:39:08;;;;;;;;;;;;;;;17.98;64.47;101109.31;5092013;28;1291;-38
2020/12/16 10:41:34;;;;;;;;;;;;;;;18.05;64.66;101114.28;5109307;28;1507;-37
2020/12/16 10:46:10;;;;;;;;;;;;;;;18.12;65.32;101110.44;5083965;27;1448;-37
2020/12/16 10:48:36;;;;;;;;;;;;;;;18.12;65.38;101113.91;5064438;28;1566;-36
2020/12/16 10:51:03;;;;;;;;;;;;;;;18.09;65.27;101113.22;5063739;28;1666;-37
2020/12/16 10:53:29;;;;;;;;;;;;;;;18.08;65.39;101108.88;5063737;28;1364;-38
2020/12/16 10:55:56;;;;;;;;;;;;;;;18.11;65.25;101106.94;5064314;28;1627;-37
2020/12/16 10:58:23;;;;;;;;;;;;;;;18.11;65.40;101111.38;5064538;28;1586;-37
2020/12/16 11:00:50;;;;;;;;;;;;;;;18.14;65.25;101105.94;5052072;28;1640;-35
2020/12/16 11:03:16;;;;;;;;;;;;;;;18.15;65.46;101102.38;5064767;28;1618;-36
2020/12/16 11:05:43;;;;;;;;;;;;;;;18.11;65.41;101106.94;5067085;28;1967;-37
2020/12/16 11:08:10;;;;;;;;;;;;;;;18.06;65.41;101094.91;5057284;28;1453;-37
2020/12/16 11:10:37;;;;;;;;;;;;;;;18.03;65.61;101094.13;5063832;28;1591;-38
2020/12/16 11:13:04;;;;;;;;;;;;;;;18.01;65.60;101090.72;5052978;28;1629;-35
2020/12/16 11:15:31;;;;;;;;;;;;;;;17.99;65.57;101092.56;5061032;28;1532;-47
2020/12/16 11:17:57;;;;;;;;;;;;;;;17.97;65.43;101088.28;5063594;28;1391;-37
2020/12/16 11:20:24;;;;;;;;;;;;;;;17.94;65.33;101078.75;5061159;28;1586;-38
2020/12/16 11:22:51;;;;;;;;;;;;;;;17.93;65.39;101082.31;5063887;28;2326;-38
2020/12/16 11:25:17;;;;;;;;;;;;;;;17.94;65.34;101080.53;5035983;28;1989;-42
2020/12/16 11:27:44;;;;;;;;;;;;;;;17.93;65.36;101077.03;5064310;28;1672;-48
2020/12/16 11:30:10;;;;;;;;;;;;;;;17.92;65.21;101080.63;5052171;28;1675;-37
2020/12/16 11:32:36;;;;;;;;;;;;;;;17.93;65.42;101081.47;5065452;28;1614;-37
2020/12/16 11:35:03;;;;;;;;;;;;;;;17.91;65.55;101078.91;5064133;28;1662;-35
2020/12/16 11:37:29;;;;;;;;;;;;;;;17.89;65.29;101070.22;5061065;28;1615;-41
2020/12/16 11:39:58;;;;;;;;;;;;;;;17.89;65.32;101070.22;5064069;28;1591;-37
2020/12/16 11:42:25;;;;;;;;;;;;;;;17.84;64.69;101069.56;5063417;28;1504;-38
2020/12/16 11:44:52;;;;;;;;;;;;;;;17.93;64.67;101061.22;5066357;28;1990;-38
2020/12/16 11:47:18;;;;;;;;;;;;;;;18.04;64.49;101063.34;5065108;28;816;-37
2020/12/16 11:49:44;;;;;;;;;;;;;;;18.07;64.49;101062.34;5045576;28;1276;-36
2020/12/16 11:52:11;;;;;;;;;;;;;;;18.14;64.04;101056.72;5063604;28;1106;-37
2020/12/16 11:54:38;;;;;;;;;;;;;;;18.15;64.02;101050.47;5064992;28;1288;-36
2020/12/16 11:57:04;;;;;;;;;;;;;;;18.17;64.09;101053.06;5034407;28;1657;-36
2020/12/16 11:59:31;;;;;;;;;;;;;;;18.18;64.11;101045.06;5050842;28;1264;-36
2020/12/16 12:01:57;;;;;;;;;;;;;;;18.20;63.95;101047.63;5050366;28;817;-36
2020/12/16 12:04:26;;;;;;;;;;;;;;;18.21;64.22;101047.53;5049755;28;1983;-38
2020/12/16 12:06:52;;;;;;;;;;;;;;;18.25;64.51;101040.34;5066837;28;1185;-38
2020/12/16 12:09:23;;;;;;;;;;;;;;;18.24;64.62;101043.94;5051398;28;1286;-37
2020/12/16 12:11:49;;;;;;;;;;;;;;;18.21;64.94;101039.63;5054301;28;1173;-41
2020/12/16 12:14:17;;;;;;;;;;;;;;;18.20;64.96;101037.94;5070991;28;1268;-38
2020/12/16 12:16:44;;;;;;;;;;;;;;;18.25;64.97;101038.56;5070638;28;1148;-38
2020/12/16 12:19:11;;;;;;;;;;;;;;;18.22;65.32;101035.22;5067720;28;1362;-38
2020/12/16 12:21:37;;;;;;;;;;;;;;;18.20;65.32;101034.44;5028994;28;1317;-38
2020/12/16 12:24:03;;;;;;;;;;;;;;;18.17;65.33;101035.47;5038509;28;2005;-37
2020/12/16 12:26:31;;;;;;;;;;;;;;;18.20;65.41;101037.09;5041647;28;1604;-38
2020/12/16 12:28:57;;;;;;;;;;;;;;;18.21;65.39;101041.44;5049770;28;1037;-37
2020/12/16 12:31:23;;;;;;;;;;;;;;;18.25;65.22;101035.06;5033259;28;1569;-47
2020/12/16 12:33:50;;;;;;;;;;;;;;;18.25;65.24;101029.78;5030047;28;1153;-47
2020/12/16 12:36:16;;;;;;;;;;;;;;;18.24;65.17;101018.38;5012205;28;1228;-38
2020/12/16 12:38:42;;;;;;;;;;;;;;;18.23;64.93;101021.97;5053184;28;1299;-39
2020/12/16 12:41:09;;;;;;;;;;;;;;;18.25;64.53;101024.50;5050020;28;1225;-38
2020/12/16 12:43:36;;;;;;;;;;;;;;;18.15;62.80;101010.09;5049696;28;1618;-38
2020/12/16 12:46:03;;;;;;;;;;;;;;;18.05;62.27;101007.06;5030828;28;1918;-38
2020/12/16 12:48:29;;;;;;;;;;;;;;;18.01;60.77;101009.00;5049562;28;1059;-38
2020/12/16 12:50:56;;;;;;;;;;;;;;;18.07;60.13;100994.66;5030863;28;1292;-42
2020/12/16 12:53:22;;;;;;;;;;;;;;;18.04;60.06;100997.44;5049035;28;1552;-36
2020/12/16 12:55:48;;;;;;;;;;;;;;;18.11;59.50;100998.00;5049512;28;1331;-37
2020/12/16 12:58:16;;;;;;;;;;;;;;;18.19;58.49;100987.91;5049433;28;802;-37
2020/12/16 13:00:43;;;;;;;;;;;;;;;18.34;58.32;100987.13;5049745;28;1374;-37
2020/12/16 13:03:09;;;;;;;;;;;;;;;18.57;57.55;100976.28;5049248;28;1084;-41
2020/12/16 13:05:36;;;;;;;;;;;;;;;18.69;57.08;100977.41;5031610;28;1976;-37
2020/12/16 13:08:02;;;;;;;;;;;;;;;18.84;56.36;100980.09;5049731;28;924;-38
2020/12/16 13:10:29;;;;;;;;;;;;;;;18.88;56.08;100978.97;5050828;28;1276;-37
2020/12/16 13:12:55;;;;;;;;;;;;;;;18.95;55.87;100963.66;5050921;28;1305;-35
2020/12/16 13:15:22;;;;;;;;;;;;;;;18.95;56.20;100969.81;5050951;28;1267;-37
2020/12/16 13:17:48;;;;;;;;;;;;;;;18.91;55.73;100968.25;5050496;28;1056;-41
2020/12/16 13:20:14;;;;;;;;;;;;;;;18.90;55.66;100963.06;5051195;28;1367;-38
2020/12/16 13:22:40;;;;;;;;;;;;;;;18.95;55.54;100961.03;5050037;28;1468;-39
2020/12/16 13:25:07;;;;;;;;;;;;;;;19.07;55.29;100961.22;5040315;28;1993;-45
2020/12/16 13:27:36;;;;;;;;;;;;;;;19.21;56.33;100962.25;5049428;28;1241;-37